Clarence Center, NY (14032)

7:29 AM EST on November 19, 2017 (GMT -0500)
Strickler-Shamus | | Change Station

Elev 669 ft 43.00 °N, 78.61 °W | Updated 14 seconds ago

Overcast
Overcast
35.2 °F
Feels Like 35 °F
N
0.0
Wind Variable Wind from ENE
Gusts 0.0 mph

Today
High -- | Low -- °F
--% Chance of Precip.
Yesterday
High -- | Low -- °F
Precip. -- in
Pressure 29.52 in
Visibility 10.0 miles
Clouds Few 1100 ft
Few 2000 ft
Overcast 2700 ft
Windchill 35 °F
Dew Point 31 °F
Humidity 83%
Rainfall 0.32 in
Snow Depth Not available.
7:12 AM 4:47 PM
New Moon, 1% visible
METAR KBUF 191154Z 30011G24KT 10SM FEW011 FEW020 OVC027 03/M01 A2950 RMK AO2 PK WND 31027/1139 SNE40 SLP994 P0000 60028 70084 T00281006 10072 20006 51066 $
Pressure 29.52 in
Visibility 10.0 miles
Clouds Few 1100 ft
Few 2000 ft
Overcast 2700 ft
Windchill 35 °F
Dew Point 31 °F
Humidity 83%
Rainfall 0.32 in
Snow Depth Not available.
7:12 AM 4:47 PM
New Moon, 1% visible
METAR KBUF 191154Z 30011G24KT 10SM FEW011 FEW020 OVC027 03/M01 A2950 RMK AO2 PK WND 31027/1139 SNE40 SLP994 P0000 60028 70084 T00281006 10072 20006 51066 $

Get Severe Weather Alerts

Thanks for signing up!

Be on the lookout for a verification email in your inbox.

You'll start receiving the daily forecast at 6 AM.

×

10-Day Weather Forecast

Almanac

Astronomy

Nov. 19, 2017 Rise Set
Actual Time
Civil Twilight
Nautical Twilight
Astronomical Twilight
Moon
Length of Visible Light
Length of Day
Tomorrow will be .
, % of the Moon is Illuminated

Today's Extremes

State Highs State Lows

Community

WunderPhotos

Category 6

Welcome to Category 6. This is the collective home for Weather Underground's featured writeups by Dr. Jeff Masters (right), Bob Henson (left), Chris Burt, and other regular contributors.

Nearby

Air Quality

  Air Quality AQ Index Pollutant
Not available.

Snow Depth

Station Depth Elevation

Earthquake Activity

City Distance Mag. Time & Date
Minimum magnitude displayed is 2.5.

Coastal Water Temperatures

Place Temperature

Stations

Nearby Weather Stations

Station Location Temp. Windchill Dew Point Humidity Wind Precip. Elev Updated Type
                   

Watches & Warnings

There are currently no watches in effect.